Meteo Giornale » Osservazioni meteo Italia » Roma Fiumicino

ore: 16:20 - Osservazioni Meteo Roma Fiumicino
Lat. 41° 48' N Lon. 12° 14' E Alt. 2 metri s.l.m.

sereno Europe/Rome

19 °C

Sereno

Temp. 24 Ore

10 °C

21 °C

Ovest

14.8 Km/h

Dew point 8 °C

Umidità 48 %

Visibilità  10 Km

Il sole sorge alle ore 06:22

Il sole tramonta alle ore 19:57

Data e Ora Cielo e Fenomeni T °C DP °C Um. % Pres. hPa Vis. km Vento km/h
Oggi h: 16:20 sereno Sereno 19 8 48 1026 10 O 14.8
Oggi h: 15:50 sereno Sereno 19 7 45 1026 10 O/SO 16.7
Oggi h: 15:20 sereno Sereno 20 8 45 1026 10 SO 16.7
Oggi h: 14:50 sereno Sereno 20 6 39 1026 10 S/SO 18.5
Oggi h: 14:20 sereno Sereno 20 4 34 1026 10 SO 18.5
Oggi h: 13:50 sereno Sereno 20 5 37 1026 10 O/SO 14.8
Oggi h: 13:20 sereno Sereno 20 5 37 1026 10 O 16.7
Oggi h: 12:50 sereno Sereno 20 5 37 1026 10 O 16.7
Oggi h: 12:20 sereno Sereno 20 7 42 1026 10 O/SO 16.7
Oggi h: 11:50 sereno Sereno 21 8 43 1027 10 N 5.5
Oggi h: 11:20 sereno Sereno 20 5 37 1027 10 N 5.5
Oggi h: 10:50 sereno Sereno 20 7 42 1027 10 N 5.5
Oggi h: 10:20 sereno Sereno 18 6 45 1026 10 N 5.5
Oggi h: 09:50 sereno Sereno 18 7 48 1026 10 E/NE 11.1
Oggi h: 08:50 sereno Sereno 15 7 58 1026 10 N 5.5
Oggi h: 08:20 nuvoloso Nuvoloso 14 6 58 1026 10 N 3.7
Oggi h: 07:50 nuvoloso Nuvoloso 13 7 66 1026 10 N 1.8
Oggi h: 07:20 nuvoloso Nuvoloso 11 6 71 1025 10 N 5.5
Oggi h: 06:50 nuvoloso Nuvoloso 11 6 71 1025 10 E/NE 7.4
Oggi h: 06:20 nuvoloso Nuvoloso 11 6 71 1025 10 N 5.5
Oggi h: 05:50 sereno Sereno 12 6 66 1025 10 NE 7.4
Oggi h: 05:20 sereno Sereno 10 7 81 1024 10 N 5.5
Oggi h: 04:50 sereno Sereno 11 8 81 1024 10 N 3.7
Oggi h: 04:20 sereno Sereno 10 8 87 1024 10 N 1.8
Oggi h: 03:50 sereno Sereno 10 8 87 1024 10 N 5.5
Oggi h: 03:20 sereno Sereno 11 8 81 1024 10 N 3.7
Oggi h: 02:50 sereno Sereno 12 8 76 1024 10 N 5.5
Oggi h: 02:20 sereno Sereno 13 9 76 1024 10 NE 9.3
Oggi h: 01:20 sereno Sereno 14 10 76 1024 10 N 1.8
Oggi h: 00:50 poco_nuvoloso Poco Nuvoloso 13 10 81 1024 10 N 3.7
Oggi h: 00:20 sereno Sereno 14 11 82 1024 10 N 3.7
Ieri h: 23:50 sereno Sereno 14 10 76 1024 10 N 3.7
Ieri h: 23:20 sereno Sereno 14 10 76 1023 10 N 5.5
Ieri h: 22:50 sereno Sereno 14 10 76 1023 10 N 3.7
Ieri h: 22:20 sereno Sereno 14 10 76 1023 10 N 5.5
Ieri h: 21:50 sereno Sereno 14 11 82 1023 10 E/NE 7.4
Ieri h: 21:20 sereno Sereno 15 10 72 1023 10 N 3.7
Ieri h: 20:50 sereno Sereno 15 11 76 1022 10 N 3.7
Ieri h: 20:20 sereno Sereno 15 11 76 1022 10 N 1.8
Ieri h: 19:50 sereno Sereno 16 12 77 1022 10 N 5.5
Ieri h: 19:20 sereno Sereno 16 12 77 1022 10 NO 9.3
Ieri h: 18:50 sereno Sereno 17 10 63 1021 10 O 9.3
Ieri h: 18:20 sereno Sereno 18 11 63 1021 10 O 11.1
Ieri h: 17:50 sereno Sereno 19 9 52 1021 10 O/SO 13
Ieri h: 17:20 sereno Sereno 20 9 49 1021 10 O 13
Ieri h: 16:50 sereno Sereno 19 7 45 1021 10 O 14.8